sensor_id;sensor_type;location;lat;lon;timestamp;temperature;humidity
41926;DHT22;27615;51.826;5.692;2022-09-29T00:00:50;7.60;99.90
41926;DHT22;27615;51.826;5.692;2022-09-29T00:03:16;7.60;99.90
41926;DHT22;27615;51.826;5.692;2022-09-29T00:05:53;7.50;99.90
41926;DHT22;27615;51.826;5.692;2022-09-29T00:08:20;7.60;99.90
41926;DHT22;27615;51.826;5.692;2022-09-29T00:10:46;7.50;99.90
41926;DHT22;27615;51.826;5.692;2022-09-29T00:13:13;7.50;99.90
41926;DHT22;27615;51.826;5.692;2022-09-29T00:15:39;7.50;99.90
41926;DHT22;27615;51.826;5.692;2022-09-29T00:18:05;7.50;99.90
41926;DHT22;27615;51.826;5.692;2022-09-29T00:20:33;7.50;99.90
41926;DHT22;27615;51.826;5.692;2022-09-29T00:22:58;7.50;99.90
41926;DHT22;27615;51.826;5.692;2022-09-29T00:25:24;7.50;99.90
41926;DHT22;27615;51.826;5.692;2022-09-29T00:27:50;7.50;99.90
41926;DHT22;27615;51.826;5.692;2022-09-29T00:30:15;7.50;99.90
41926;DHT22;27615;51.826;5.692;2022-09-29T00:32:41;7.50;99.90
41926;DHT22;27615;51.826;5.692;2022-09-29T00:35:07;7.50;99.90
41926;DHT22;27615;51.826;5.692;2022-09-29T00:37:35;7.40;99.90
41926;DHT22;27615;51.826;5.692;2022-09-29T00:40:00;7.40;99.90
41926;DHT22;27615;51.826;5.692;2022-09-29T00:42:26;7.30;99.90
41926;DHT22;27615;51.826;5.692;2022-09-29T00:45:04;7.30;99.90
41926;DHT22;27615;51.826;5.692;2022-09-29T00:47:32;7.30;99.90
41926;DHT22;27615;51.826;5.692;2022-09-29T00:50:02;7.30;99.90
41926;DHT22;27615;51.826;5.692;2022-09-29T00:54:55;7.20;99.90
41926;DHT22;27615;51.826;5.692;2022-09-29T00:57:26;7.20;99.90
41926;DHT22;27615;51.826;5.692;2022-09-29T01:02:33;7.30;99.90
41926;DHT22;27615;51.826;5.692;2022-09-29T01:05:01;7.40;99.90
41926;DHT22;27615;51.826;5.692;2022-09-29T01:07:29;7.40;99.90
41926;DHT22;27615;51.826;5.692;2022-09-29T01:09:56;7.40;99.90
41926;DHT22;27615;51.826;5.692;2022-09-29T01:12:22;7.40;99.90
41926;DHT22;27615;51.826;5.692;2022-09-29T01:14:48;7.40;99.90
41926;DHT22;27615;51.826;5.692;2022-09-29T01:17:15;7.50;99.90
41926;DHT22;27615;51.826;5.692;2022-09-29T01:31:46;7.20;99.90
41926;DHT22;27615;51.826;5.692;2022-09-29T01:37:40;7.10;99.90
41926;DHT22;27615;51.826;5.692;2022-09-29T01:40:13;7.20;99.90
41926;DHT22;27615;51.826;5.692;2022-09-29T01:43:04;7.20;99.90
41926;DHT22;27615;51.826;5.692;2022-09-29T01:45:33;7.20;99.90
41926;DHT22;27615;51.826;5.692;2022-09-29T01:48:03;7.10;99.90
41926;DHT22;27615;51.826;5.692;2022-09-29T01:50:35;7.20;99.90
41926;DHT22;27615;51.826;5.692;2022-09-29T01:53:14;7.20;99.90
41926;DHT22;27615;51.826;5.692;2022-09-29T01:55:51;7.20;99.90
41926;DHT22;27615;51.826;5.692;2022-09-29T01:58:28;7.10;99.90
41926;DHT22;27615;51.826;5.692;2022-09-29T02:00:58;7.10;99.90
41926;DHT22;27615;51.826;5.692;2022-09-29T02:03:29;7.00;99.90
41926;DHT22;27615;51.826;5.692;2022-09-29T02:06:02;7.00;99.90
41926;DHT22;27615;51.826;5.692;2022-09-29T02:08:36;7.10;99.90
41926;DHT22;27615;51.826;5.692;2022-09-29T02:11:05;7.10;99.90
41926;DHT22;27615;51.826;5.692;2022-09-29T02:13:43;7.10;99.90
41926;DHT22;27615;51.826;5.692;2022-09-29T02:16:12;7.00;99.90
41926;DHT22;27615;51.826;5.692;2022-09-29T02:18:53;7.00;99.90
41926;DHT22;27615;51.826;5.692;2022-09-29T02:21:21;7.00;99.90
41926;DHT22;27615;51.826;5.692;2022-09-29T02:23:48;7.00;99.90
41926;DHT22;27615;51.826;5.692;2022-09-29T02:26:14;6.90;99.90
41926;DHT22;27615;51.826;5.692;2022-09-29T02:28:41;6.90;99.90
41926;DHT22;27615;51.826;5.692;2022-09-29T02:31:07;6.80;99.90
41926;DHT22;27615;51.826;5.692;2022-09-29T02:33:33;6.80;99.90
41926;DHT22;27615;51.826;5.692;2022-09-29T02:38:55;6.70;99.90
41926;DHT22;27615;51.826;5.692;2022-09-29T02:44:19;6.70;99.90
41926;DHT22;27615;51.826;5.692;2022-09-29T02:55:16;6.60;99.90
41926;DHT22;27615;51.826;5.692;2022-09-29T02:57:55;6.60;99.90
41926;DHT22;27615;51.826;5.692;2022-09-29T03:00:23;6.60;99.90
41926;DHT22;27615;51.826;5.692;2022-09-29T03:02:50;6.60;99.90
41926;DHT22;27615;51.826;5.692;2022-09-29T03:05:20;6.60;99.90
41926;DHT22;27615;51.826;5.692;2022-09-29T03:07:47;6.60;99.90
41926;DHT22;27615;51.826;5.692;2022-09-29T03:10:13;6.60;99.90
41926;DHT22;27615;51.826;5.692;2022-09-29T03:12:39;6.60;99.90
41926;DHT22;27615;51.826;5.692;2022-09-29T03:15:06;6.60;99.90
41926;DHT22;27615;51.826;5.692;2022-09-29T03:17:32;6.60;99.90
41926;DHT22;27615;51.826;5.692;2022-09-29T03:19:57;6.60;99.90
41926;DHT22;27615;51.826;5.692;2022-09-29T03:22:23;6.60;99.90
41926;DHT22;27615;51.826;5.692;2022-09-29T03:24:49;6.60;99.90
41926;DHT22;27615;51.826;5.692;2022-09-29T03:27:15;6.60;99.90
41926;DHT22;27615;51.826;5.692;2022-09-29T03:29:40;6.60;99.90
41926;DHT22;27615;51.826;5.692;2022-09-29T03:32:06;6.60;99.90
41926;DHT22;27615;51.826;5.692;2022-09-29T03:34:32;6.60;99.90
41926;DHT22;27615;51.826;5.692;2022-09-29T03:36:58;6.60;99.90
41926;DHT22;27615;51.826;5.692;2022-09-29T03:39:24;6.60;99.90
41926;DHT22;27615;51.826;5.692;2022-09-29T03:41:50;6.60;99.90
41926;DHT22;27615;51.826;5.692;2022-09-29T03:44:16;6.60;99.90
41926;DHT22;27615;51.826;5.692;2022-09-29T03:46:42;6.50;99.90
41926;DHT22;27615;51.826;5.692;2022-09-29T03:49:11;6.50;99.90
41926;DHT22;27615;51.826;5.692;2022-09-29T03:51:37;6.50;99.90
41926;DHT22;27615;51.826;5.692;2022-09-29T03:54:03;6.40;99.90
41926;DHT22;27615;51.826;5.692;2022-09-29T03:56:30;6.40;99.90
41926;DHT22;27615;51.826;5.692;2022-09-29T03:58:56;6.40;99.90
41926;DHT22;27615;51.826;5.692;2022-09-29T04:01:22;6.40;99.90
41926;DHT22;27615;51.826;5.692;2022-09-29T04:03:47;6.40;99.90
41926;DHT22;27615;51.826;5.692;2022-09-29T04:06:13;6.40;99.90
41926;DHT22;27615;51.826;5.692;2022-09-29T04:08:39;6.30;99.90
41926;DHT22;27615;51.826;5.692;2022-09-29T04:11:05;6.30;99.90
41926;DHT22;27615;51.826;5.692;2022-09-29T04:13:31;6.30;99.90
41926;DHT22;27615;51.826;5.692;2022-09-29T04:16:02;6.20;99.90
41926;DHT22;27615;51.826;5.692;2022-09-29T04:18:28;6.20;99.90
41926;DHT22;27615;51.826;5.692;2022-09-29T04:20:54;6.10;99.90
41926;DHT22;27615;51.826;5.692;2022-09-29T04:23:28;6.00;99.90
41926;DHT22;27615;51.826;5.692;2022-09-29T04:25:56;6.00;99.90
41926;DHT22;27615;51.826;5.692;2022-09-29T04:28:22;6.00;99.90
41926;DHT22;27615;51.826;5.692;2022-09-29T04:30:47;6.00;99.90
41926;DHT22;27615;51.826;5.692;2022-09-29T04:33:13;5.90;99.90
41926;DHT22;27615;51.826;5.692;2022-09-29T04:35:38;6.00;99.90
41926;DHT22;27615;51.826;5.692;2022-09-29T04:38:04;5.90;99.90
41926;DHT22;27615;51.826;5.692;2022-09-29T04:40:30;5.90;99.90
41926;DHT22;27615;51.826;5.692;2022-09-29T04:42:55;5.90;99.90
41926;DHT22;27615;51.826;5.692;2022-09-29T04:45:21;5.80;99.90
41926;DHT22;27615;51.826;5.692;2022-09-29T04:47:46;5.90;99.90
41926;DHT22;27615;51.826;5.692;2022-09-29T04:50:12;5.90;99.90
41926;DHT22;27615;51.826;5.692;2022-09-29T04:52:41;5.90;99.90
41926;DHT22;27615;51.826;5.692;2022-09-29T04:55:08;5.90;99.90
41926;DHT22;27615;51.826;5.692;2022-09-29T04:57:36;5.90;99.90
41926;DHT22;27615;51.826;5.692;2022-09-29T05:00:02;5.90;99.90
41926;DHT22;27615;51.826;5.692;2022-09-29T05:02:28;5.90;99.90
41926;DHT22;27615;51.826;5.692;2022-09-29T05:04:54;5.90;99.90
41926;DHT22;27615;51.826;5.692;2022-09-29T05:07:19;5.90;99.90
41926;DHT22;27615;51.826;5.692;2022-09-29T05:09:45;5.90;99.90
41926;DHT22;27615;51.826;5.692;2022-09-29T05:12:11;5.90;99.90
41926;DHT22;27615;51.826;5.692;2022-09-29T05:14:36;5.90;99.90
41926;DHT22;27615;51.826;5.692;2022-09-29T05:17:02;5.90;99.90
41926;DHT22;27615;51.826;5.692;2022-09-29T05:19:27;5.80;99.90
41926;DHT22;27615;51.826;5.692;2022-09-29T05:21:53;5.80;99.90
41926;DHT22;27615;51.826;5.692;2022-09-29T05:24:19;5.80;99.90
41926;DHT22;27615;51.826;5.692;2022-09-29T05:26:44;5.80;99.90
41926;DHT22;27615;51.826;5.692;2022-09-29T05:29:10;5.80;99.90
41926;DHT22;27615;51.826;5.692;2022-09-29T05:31:35;5.80;99.90
41926;DHT22;27615;51.826;5.692;2022-09-29T05:34:01;5.80;99.90
41926;DHT22;27615;51.826;5.692;2022-09-29T05:36:26;5.90;99.90
41926;DHT22;27615;51.826;5.692;2022-09-29T05:38:52;5.90;99.90
41926;DHT22;27615;51.826;5.692;2022-09-29T05:41:17;5.90;99.90
41926;DHT22;27615;51.826;5.692;2022-09-29T05:43:47;5.80;99.90
41926;DHT22;27615;51.826;5.692;2022-09-29T05:46:13;5.80;99.90
41926;DHT22;27615;51.826;5.692;2022-09-29T05:48:40;5.70;99.90
41926;DHT22;27615;51.826;5.692;2022-09-29T05:51:10;5.60;99.90
41926;DHT22;27615;51.826;5.692;2022-09-29T05:53:40;5.60;99.90
41926;DHT22;27615;51.826;5.692;2022-09-29T05:56:11;5.60;99.90
41926;DHT22;27615;51.826;5.692;2022-09-29T05:58:37;5.60;99.90
41926;DHT22;27615;51.826;5.692;2022-09-29T06:01:07;5.70;99.90
41926;DHT22;27615;51.826;5.692;2022-09-29T06:03:34;5.70;99.90
41926;DHT22;27615;51.826;5.692;2022-09-29T06:06:14;5.80;99.90
41926;DHT22;27615;51.826;5.692;2022-09-29T06:08:41;5.80;99.90
41926;DHT22;27615;51.826;5.692;2022-09-29T06:11:13;5.80;99.90
41926;DHT22;27615;51.826;5.692;2022-09-29T06:13:41;5.90;99.90
41926;DHT22;27615;51.826;5.692;2022-09-29T06:16:08;5.90;99.90
41926;DHT22;27615;51.826;5.692;2022-09-29T06:18:34;5.90;99.90
41926;DHT22;27615;51.826;5.692;2022-09-29T06:21:08;5.90;99.90
41926;DHT22;27615;51.826;5.692;2022-09-29T06:23:34;5.90;99.90
41926;DHT22;27615;51.826;5.692;2022-09-29T06:26:05;5.80;99.90
41926;DHT22;27615;51.826;5.692;2022-09-29T06:28:31;5.90;99.90
41926;DHT22;27615;51.826;5.692;2022-09-29T06:30:59;5.90;99.90
41926;DHT22;27615;51.826;5.692;2022-09-29T06:33:26;5.80;99.90
41926;DHT22;27615;51.826;5.692;2022-09-29T06:35:51;5.80;99.90
41926;DHT22;27615;51.826;5.692;2022-09-29T06:38:36;5.80;99.90
41926;DHT22;27615;51.826;5.692;2022-09-29T06:41:01;5.80;99.90
41926;DHT22;27615;51.826;5.692;2022-09-29T06:43:27;5.80;99.90
41926;DHT22;27615;51.826;5.692;2022-09-29T06:45:52;5.90;99.90
41926;DHT22;27615;51.826;5.692;2022-09-29T06:48:18;5.90;99.90
41926;DHT22;27615;51.826;5.692;2022-09-29T06:50:43;5.90;99.90
41926;DHT22;27615;51.826;5.692;2022-09-29T06:53:09;5.90;99.90
41926;DHT22;27615;51.826;5.692;2022-09-29T06:55:35;6.00;99.90
41926;DHT22;27615;51.826;5.692;2022-09-29T06:58:00;6.00;99.90
41926;DHT22;27615;51.826;5.692;2022-09-29T07:00:26;6.00;99.90
41926;DHT22;27615;51.826;5.692;2022-09-29T07:02:51;6.10;99.90
41926;DHT22;27615;51.826;5.692;2022-09-29T07:05:17;6.10;99.90
41926;DHT22;27615;51.826;5.692;2022-09-29T07:07:42;6.10;99.90
41926;DHT22;27615;51.826;5.692;2022-09-29T07:10:08;6.10;99.90
41926;DHT22;27615;51.826;5.692;2022-09-29T07:12:34;6.20;99.90
41926;DHT22;27615;51.826;5.692;2022-09-29T07:14:59;6.20;99.90
41926;DHT22;27615;51.826;5.692;2022-09-29T07:17:25;6.20;99.90
41926;DHT22;27615;51.826;5.692;2022-09-29T07:19:50;6.20;99.90
41926;DHT22;27615;51.826;5.692;2022-09-29T07:22:19;6.30;99.90
41926;DHT22;27615;51.826;5.692;2022-09-29T07:24:44;6.30;99.90
41926;DHT22;27615;51.826;5.692;2022-09-29T07:27:12;6.40;99.90
41926;DHT22;27615;51.826;5.692;2022-09-29T07:29:37;6.50;99.90
41926;DHT22;27615;51.826;5.692;2022-09-29T07:32:03;6.50;99.90
41926;DHT22;27615;51.826;5.692;2022-09-29T07:34:28;6.60;99.90
41926;DHT22;27615;51.826;5.692;2022-09-29T07:36:54;6.60;99.90
41926;DHT22;27615;51.826;5.692;2022-09-29T07:39:20;6.70;99.90
41926;DHT22;27615;51.826;5.692;2022-09-29T07:41:47;6.80;99.90
41926;DHT22;27615;51.826;5.692;2022-09-29T07:44:12;6.90;99.90
41926;DHT22;27615;51.826;5.692;2022-09-29T07:46:38;6.90;99.90
41926;DHT22;27615;51.826;5.692;2022-09-29T07:49:03;7.00;99.90
41926;DHT22;27615;51.826;5.692;2022-09-29T07:51:29;7.00;99.90
41926;DHT22;27615;51.826;5.692;2022-09-29T07:53:55;7.10;99.90
41926;DHT22;27615;51.826;5.692;2022-09-29T07:56:25;7.20;99.90
41926;DHT22;27615;51.826;5.692;2022-09-29T07:58:50;7.30;99.90
41926;DHT22;27615;51.826;5.692;2022-09-29T08:01:18;7.30;99.90
41926;DHT22;27615;51.826;5.692;2022-09-29T08:03:48;7.40;99.90
41926;DHT22;27615;51.826;5.692;2022-09-29T08:06:14;7.50;99.90
41926;DHT22;27615;51.826;5.692;2022-09-29T08:08:41;7.60;99.90
41926;DHT22;27615;51.826;5.692;2022-09-29T08:11:11;7.60;99.90
41926;DHT22;27615;51.826;5.692;2022-09-29T08:13:37;7.70;99.90
41926;DHT22;27615;51.826;5.692;2022-09-29T08:16:06;7.80;99.90
41926;DHT22;27615;51.826;5.692;2022-09-29T08:18:33;7.90;99.90
41926;DHT22;27615;51.826;5.692;2022-09-29T08:20:59;7.90;99.90
41926;DHT22;27615;51.826;5.692;2022-09-29T08:23:25;8.00;99.90
41926;DHT22;27615;51.826;5.692;2022-09-29T08:26:12;8.10;99.90
41926;DHT22;27615;51.826;5.692;2022-09-29T08:28:38;8.20;99.90
41926;DHT22;27615;51.826;5.692;2022-09-29T08:31:06;8.30;99.90
41926;DHT22;27615;51.826;5.692;2022-09-29T08:33:32;8.30;99.90
41926;DHT22;27615;51.826;5.692;2022-09-29T08:35:59;8.40;99.90
41926;DHT22;27615;51.826;5.692;2022-09-29T08:38:25;8.40;99.90
41926;DHT22;27615;51.826;5.692;2022-09-29T08:40:53;8.50;99.90
41926;DHT22;27615;51.826;5.692;2022-09-29T08:46:27;8.70;99.90
41926;DHT22;27615;51.826;5.692;2022-09-29T08:48:55;8.80;99.90
41926;DHT22;27615;51.826;5.692;2022-09-29T08:51:52;8.80;99.90
41926;DHT22;27615;51.826;5.692;2022-09-29T08:56:49;9.00;99.90
41926;DHT22;27615;51.826;5.692;2022-09-29T08:59:14;9.10;99.90
41926;DHT22;27615;51.826;5.692;2022-09-29T09:10:01;9.50;99.90
41926;DHT22;27615;51.826;5.692;2022-09-29T09:12:38;9.60;99.90
41926;DHT22;27615;51.826;5.692;2022-09-29T09:20:44;9.90;99.90
41926;DHT22;27615;51.826;5.692;2022-09-29T09:26:13;10.10;99.90
41926;DHT22;27615;51.826;5.692;2022-09-29T09:28:47;10.20;99.90
41926;DHT22;27615;51.826;5.692;2022-09-29T09:33:48;10.40;99.90
41926;DHT22;27615;51.826;5.692;2022-09-29T09:36:22;10.50;99.90
41926;DHT22;27615;51.826;5.692;2022-09-29T09:38:57;10.60;99.90
41926;DHT22;27615;51.826;5.692;2022-09-29T09:41:27;10.80;99.90
41926;DHT22;27615;51.826;5.692;2022-09-29T09:44:15;10.90;99.90
41926;DHT22;27615;51.826;5.692;2022-09-29T09:46:51;11.10;99.90
41926;DHT22;27615;51.826;5.692;2022-09-29T09:49:27;11.30;99.90
41926;DHT22;27615;51.826;5.692;2022-09-29T09:54:28;11.50;99.90
41926;DHT22;27615;51.826;5.692;2022-09-29T09:57:26;11.70;99.90
41926;DHT22;27615;51.826;5.692;2022-09-29T10:00:19;11.90;99.90
41926;DHT22;27615;51.826;5.692;2022-09-29T10:02:50;12.10;99.90
41926;DHT22;27615;51.826;5.692;2022-09-29T10:05:19;12.40;99.90
41926;DHT22;27615;51.826;5.692;2022-09-29T10:07:45;12.60;99.90
41926;DHT22;27615;51.826;5.692;2022-09-29T10:10:17;12.90;99.90
41926;DHT22;27615;51.826;5.692;2022-09-29T10:12:43;13.20;99.90
41926;DHT22;27615;51.826;5.692;2022-09-29T10:15:23;13.60;99.90
41926;DHT22;27615;51.826;5.692;2022-09-29T10:17:58;14.10;99.90
41926;DHT22;27615;51.826;5.692;2022-09-29T10:20:32;14.50;99.90
41926;DHT22;27615;51.826;5.692;2022-09-29T10:23:21;14.90;99.90
41926;DHT22;27615;51.826;5.692;2022-09-29T10:26:08;15.60;99.90
41926;DHT22;27615;51.826;5.692;2022-09-29T10:28:43;17.20;99.90
41926;DHT22;27615;51.826;5.692;2022-09-29T10:31:27;20.40;99.90
41926;DHT22;27615;51.826;5.692;2022-09-29T10:33:59;22.90;97.10
41926;DHT22;27615;51.826;5.692;2022-09-29T10:36:30;23.90;93.10
41926;DHT22;27615;51.826;5.692;2022-09-29T10:38:56;25.70;87.10
41926;DHT22;27615;51.826;5.692;2022-09-29T10:41:23;28.30;80.20
41926;DHT22;27615;51.826;5.692;2022-09-29T10:43:49;30.70;72.70
41926;DHT22;27615;51.826;5.692;2022-09-29T10:49:12;32.00;49.50
41926;DHT22;27615;51.826;5.692;2022-09-29T10:51:39;32.40;46.80
41926;DHT22;27615;51.826;5.692;2022-09-29T10:54:07;29.60;45.70
41926;DHT22;27615;51.826;5.692;2022-09-29T10:56:35;28.30;48.90
41926;DHT22;27615;51.826;5.692;2022-09-29T10:59:02;29.70;49.60
41926;DHT22;27615;51.826;5.692;2022-09-29T11:01:30;32.60;48.60
41926;DHT22;27615;51.826;5.692;2022-09-29T11:04:03;35.50;45.90
41926;DHT22;27615;51.826;5.692;2022-09-29T11:06:31;37.90;43.90
41926;DHT22;27615;51.826;5.692;2022-09-29T11:17:01;41.40;38.70
41926;DHT22;27615;51.826;5.692;2022-09-29T11:19:31;42.20;35.60
41926;DHT22;27615;51.826;5.692;2022-09-29T11:25:13;41.50;32.00
41926;DHT22;27615;51.826;5.692;2022-09-29T11:31:22;39.50;31.90
41926;DHT22;27615;51.826;5.692;2022-09-29T11:36:33;43.60;33.50
41926;DHT22;27615;51.826;5.692;2022-09-29T11:39:21;45.30;32.20
41926;DHT22;27615;51.826;5.692;2022-09-29T11:42:01;44.10;28.50
41926;DHT22;27615;51.826;5.692;2022-09-29T11:50:31;45.70;31.10
41926;DHT22;27615;51.826;5.692;2022-09-29T11:59:09;39.70;29.60
41926;DHT22;27615;51.826;5.692;2022-09-29T12:01:56;39.30;29.60
41926;DHT22;27615;51.826;5.692;2022-09-29T12:04:41;40.40;31.10
41926;DHT22;27615;51.826;5.692;2022-09-29T12:07:38;42.40;29.60
41926;DHT22;27615;51.826;5.692;2022-09-29T12:13:04;42.90;29.70
41926;DHT22;27615;51.826;5.692;2022-09-29T12:15:59;43.20;28.90
41926;DHT22;27615;51.826;5.692;2022-09-29T12:18:36;43.80;28.80
41926;DHT22;27615;51.826;5.692;2022-09-29T12:21:06;42.40;28.20
41926;DHT22;27615;51.826;5.692;2022-09-29T12:23:33;41.90;29.10
41926;DHT22;27615;51.826;5.692;2022-09-29T12:26:08;42.30;28.80
41926;DHT22;27615;51.826;5.692;2022-09-29T12:28:52;41.80;28.90
41926;DHT22;27615;51.826;5.692;2022-09-29T12:31:35;42.40;29.30
41926;DHT22;27615;51.826;5.692;2022-09-29T12:34:14;42.40;28.40
41926;DHT22;27615;51.826;5.692;2022-09-29T12:45:01;36.60;30.50
41926;DHT22;27615;51.826;5.692;2022-09-29T12:50:14;34.00;33.30
41926;DHT22;27615;51.826;5.692;2022-09-29T12:52:59;33.40;34.40
41926;DHT22;27615;51.826;5.692;2022-09-29T12:55:33;33.10;34.70
41926;DHT22;27615;51.826;5.692;2022-09-29T12:58:02;33.20;35.20
41926;DHT22;27615;51.826;5.692;2022-09-29T13:00:30;34.60;34.90
41926;DHT22;27615;51.826;5.692;2022-09-29T13:05:32;35.70;33.90
41926;DHT22;27615;51.826;5.692;2022-09-29T13:16:37;38.50;32.40
41926;DHT22;27615;51.826;5.692;2022-09-29T13:22:15;37.80;30.60
41926;DHT22;27615;51.826;5.692;2022-09-29T13:32:26;35.40;31.80
41926;DHT22;27615;51.826;5.692;2022-09-29T13:34:58;33.80;32.50
41926;DHT22;27615;51.826;5.692;2022-09-29T13:37:34;32.10;33.80
41926;DHT22;27615;51.826;5.692;2022-09-29T13:40:07;31.90;35.20
41926;DHT22;27615;51.826;5.692;2022-09-29T13:42:47;32.70;35.00
41926;DHT22;27615;51.826;5.692;2022-09-29T13:47:51;32.60;34.20
41926;DHT22;27615;51.826;5.692;2022-09-29T13:58:25;29.40;37.40
41926;DHT22;27615;51.826;5.692;2022-09-29T14:00:52;30.60;37.50
41926;DHT22;27615;51.826;5.692;2022-09-29T14:03:23;31.70;36.80
41926;DHT22;27615;51.826;5.692;2022-09-29T14:05:56;31.90;36.30
41926;DHT22;27615;51.826;5.692;2022-09-29T14:08:41;31.60;36.60
41926;DHT22;27615;51.826;5.692;2022-09-29T14:11:39;31.00;37.00
41926;DHT22;27615;51.826;5.692;2022-09-29T14:19:54;29.60;38.70
41926;DHT22;27615;51.826;5.692;2022-09-29T14:27:58;28.60;39.80
41926;DHT22;27615;51.826;5.692;2022-09-29T14:33:07;27.80;40.60
41926;DHT22;27615;51.826;5.692;2022-09-29T14:35:36;27.60;41.20
41926;DHT22;27615;51.826;5.692;2022-09-29T14:38:25;27.30;41.70
41926;DHT22;27615;51.826;5.692;2022-09-29T14:43:19;26.50;42.80
41926;DHT22;27615;51.826;5.692;2022-09-29T14:49:08;26.00;43.50
41926;DHT22;27615;51.826;5.692;2022-09-29T14:58:24;25.40;45.30
41926;DHT22;27615;51.826;5.692;2022-09-29T15:01:18;25.20;45.50
41926;DHT22;27615;51.826;5.692;2022-09-29T15:03:50;24.90;46.00
41926;DHT22;27615;51.826;5.692;2022-09-29T15:06:25;24.80;46.70
41926;DHT22;27615;51.826;5.692;2022-09-29T15:13:48;25.50;45.30
41926;DHT22;27615;51.826;5.692;2022-09-29T15:19:41;25.70;44.00
41926;DHT22;27615;51.826;5.692;2022-09-29T15:25:39;25.60;43.70
41926;DHT22;27615;51.826;5.692;2022-09-29T15:28:19;25.50;43.50
41926;DHT22;27615;51.826;5.692;2022-09-29T15:30:48;25.60;43.50
41926;DHT22;27615;51.826;5.692;2022-09-29T15:35:56;25.40;42.70
41926;DHT22;27615;51.826;5.692;2022-09-29T15:40:52;25.40;42.80
41926;DHT22;27615;51.826;5.692;2022-09-29T15:43:20;25.50;42.80
41926;DHT22;27615;51.826;5.692;2022-09-29T15:46:13;25.40;42.90
41926;DHT22;27615;51.826;5.692;2022-09-29T15:48:41;25.50;43.00
41926;DHT22;27615;51.826;5.692;2022-09-29T15:51:22;25.30;43.00
41926;DHT22;27615;51.826;5.692;2022-09-29T15:53:50;25.30;43.10
41926;DHT22;27615;51.826;5.692;2022-09-29T15:56:16;25.20;43.10
41926;DHT22;27615;51.826;5.692;2022-09-29T15:58:44;25.10;43.00
41926;DHT22;27615;51.826;5.692;2022-09-29T16:01:13;25.00;43.20
41926;DHT22;27615;51.826;5.692;2022-09-29T16:03:48;24.90;43.30
41926;DHT22;27615;51.826;5.692;2022-09-29T16:06:17;24.90;43.10
41926;DHT22;27615;51.826;5.692;2022-09-29T16:08:46;24.80;43.50
41926;DHT22;27615;51.826;5.692;2022-09-29T16:11:22;24.60;44.30
41926;DHT22;27615;51.826;5.692;2022-09-29T16:13:52;24.40;44.90
41926;DHT22;27615;51.826;5.692;2022-09-29T16:16:25;24.20;45.50
41926;DHT22;27615;51.826;5.692;2022-09-29T16:18:51;24.00;45.90
41926;DHT22;27615;51.826;5.692;2022-09-29T16:21:24;23.90;46.30
41926;DHT22;27615;51.826;5.692;2022-09-29T16:23:50;23.70;46.70
41926;DHT22;27615;51.826;5.692;2022-09-29T16:31:40;23.20;48.20
41926;DHT22;27615;51.826;5.692;2022-09-29T16:36:48;23.00;49.10
41926;DHT22;27615;51.826;5.692;2022-09-29T16:39:15;22.90;49.70
41926;DHT22;27615;51.826;5.692;2022-09-29T16:41:42;22.80;50.10
41926;DHT22;27615;51.826;5.692;2022-09-29T16:44:39;22.70;50.60
41926;DHT22;27615;51.826;5.692;2022-09-29T16:47:16;22.60;51.00
41926;DHT22;27615;51.826;5.692;2022-09-29T16:49:50;22.40;51.50
41926;DHT22;27615;51.826;5.692;2022-09-29T16:54:47;22.00;52.30
41926;DHT22;27615;51.826;5.692;2022-09-29T16:59:53;21.50;53.20
41926;DHT22;27615;51.826;5.692;2022-09-29T17:02:19;21.20;53.80
41926;DHT22;27615;51.826;5.692;2022-09-29T17:04:47;21.00;54.10
41926;DHT22;27615;51.826;5.692;2022-09-29T17:07:17;20.80;54.50
41926;DHT22;27615;51.826;5.692;2022-09-29T17:09:46;20.60;54.80
41926;DHT22;27615;51.826;5.692;2022-09-29T17:12:13;20.30;55.20
41926;DHT22;27615;51.826;5.692;2022-09-29T17:14:39;20.10;55.70
41926;DHT22;27615;51.826;5.692;2022-09-29T17:17:04;19.80;56.10
41926;DHT22;27615;51.826;5.692;2022-09-29T17:19:30;19.60;56.40
41926;DHT22;27615;51.826;5.692;2022-09-29T17:21:56;19.40;56.70
41926;DHT22;27615;51.826;5.692;2022-09-29T17:24:22;19.20;57.10
41926;DHT22;27615;51.826;5.692;2022-09-29T17:26:48;19.00;57.40
41926;DHT22;27615;51.826;5.692;2022-09-29T17:29:52;18.80;58.00
41926;DHT22;27615;51.826;5.692;2022-09-29T17:32:18;18.50;58.80
41926;DHT22;27615;51.826;5.692;2022-09-29T17:34:44;18.40;59.20
41926;DHT22;27615;51.826;5.692;2022-09-29T17:37:09;18.20;59.40
41926;DHT22;27615;51.826;5.692;2022-09-29T17:39:35;18.10;59.50
41926;DHT22;27615;51.826;5.692;2022-09-29T17:42:01;18.00;59.70
41926;DHT22;27615;51.826;5.692;2022-09-29T17:44:26;17.80;59.90
41926;DHT22;27615;51.826;5.692;2022-09-29T17:46:52;17.60;60.10
41926;DHT22;27615;51.826;5.692;2022-09-29T17:49:18;17.40;60.40
41926;DHT22;27615;51.826;5.692;2022-09-29T17:51:44;17.20;60.80
41926;DHT22;27615;51.826;5.692;2022-09-29T17:54:09;17.00;61.30
41926;DHT22;27615;51.826;5.692;2022-09-29T17:56:40;16.80;61.90
41926;DHT22;27615;51.826;5.692;2022-09-29T17:59:06;16.70;62.40
41926;DHT22;27615;51.826;5.692;2022-09-29T18:01:33;16.50;62.80
41926;DHT22;27615;51.826;5.692;2022-09-29T18:04:03;16.40;63.30
41926;DHT22;27615;51.826;5.692;2022-09-29T18:06:29;16.20;64.40
41926;DHT22;27615;51.826;5.692;2022-09-29T18:08:57;16.10;64.10
41926;DHT22;27615;51.826;5.692;2022-09-29T18:11:24;16.00;64.40
41926;DHT22;27615;51.826;5.692;2022-09-29T18:13:50;15.80;64.80
41926;DHT22;27615;51.826;5.692;2022-09-29T18:16:19;15.70;65.10
41926;DHT22;27615;51.826;5.692;2022-09-29T18:18:45;15.60;65.30
41926;DHT22;27615;51.826;5.692;2022-09-29T18:21:11;15.50;65.50
41926;DHT22;27615;51.826;5.692;2022-09-29T18:23:37;15.40;65.90
41926;DHT22;27615;51.826;5.692;2022-09-29T18:26:04;15.20;66.30
41926;DHT22;27615;51.826;5.692;2022-09-29T18:28:31;15.20;66.60
41926;DHT22;27615;51.826;5.692;2022-09-29T18:31:25;15.10;66.90
41926;DHT22;27615;51.826;5.692;2022-09-29T18:33:50;14.90;67.60
41926;DHT22;27615;51.826;5.692;2022-09-29T18:36:16;14.80;68.10
41926;DHT22;27615;51.826;5.692;2022-09-29T18:38:42;14.60;68.40
41926;DHT22;27615;51.826;5.692;2022-09-29T18:41:13;14.50;68.60
41926;DHT22;27615;51.826;5.692;2022-09-29T18:43:40;14.50;69.00
41926;DHT22;27615;51.826;5.692;2022-09-29T18:46:07;14.40;69.30
41926;DHT22;27615;51.826;5.692;2022-09-29T18:48:32;14.30;69.50
41926;DHT22;27615;51.826;5.692;2022-09-29T18:50:58;14.20;69.80
41926;DHT22;27615;51.826;5.692;2022-09-29T18:53:24;14.20;70.00
41926;DHT22;27615;51.826;5.692;2022-09-29T18:55:54;14.00;70.30
41926;DHT22;27615;51.826;5.692;2022-09-29T18:58:21;13.90;70.70
41926;DHT22;27615;51.826;5.692;2022-09-29T19:00:49;13.80;71.10
41926;DHT22;27615;51.826;5.692;2022-09-29T19:03:18;13.80;71.50
41926;DHT22;27615;51.826;5.692;2022-09-29T19:05:44;13.70;71.60
41926;DHT22;27615;51.826;5.692;2022-09-29T19:08:12;13.60;71.90
41926;DHT22;27615;51.826;5.692;2022-09-29T19:10:38;13.50;72.30
41926;DHT22;27615;51.826;5.692;2022-09-29T19:13:07;13.40;72.80